createdAt,value
2019-03-06T00:00:28.777Z,2.60
2019-03-06T00:02:57.388Z,2.70
2019-03-06T00:05:25.990Z,2.70
2019-03-06T00:07:54.724Z,2.70
2019-03-06T00:10:25.973Z,2.70
2019-03-06T00:12:54.581Z,2.60
2019-03-06T00:15:23.284Z,2.60
2019-03-06T00:17:51.962Z,2.60
2019-03-06T00:20:20.938Z,2.60
2019-03-06T00:22:49.649Z,2.60
2019-03-06T00:25:18.329Z,2.50
2019-03-06T00:27:46.868Z,2.50
2019-03-06T00:30:17.009Z,2.50
2019-03-06T00:32:45.890Z,2.50
2019-03-06T00:35:34.653Z,2.50
2019-03-06T00:38:03.264Z,2.40
2019-03-06T00:40:36.523Z,2.40
2019-03-06T00:43:05.297Z,2.50
2019-03-06T00:45:33.913Z,2.50
2019-03-06T00:48:02.563Z,2.40
2019-03-06T00:50:31.263Z,2.40
2019-03-06T00:53:00.107Z,2.40
2019-03-06T00:55:28.743Z,2.50
2019-03-06T00:57:57.399Z,2.40
2019-03-06T01:00:26.183Z,2.50
2019-03-06T01:02:54.990Z,2.50
2019-03-06T01:05:24.539Z,2.40
2019-03-06T01:07:53.370Z,2.40
2019-03-06T01:10:22.305Z,2.40
2019-03-06T01:12:50.971Z,2.50
2019-03-06T01:15:19.978Z,2.50
2019-03-06T01:17:48.850Z,2.40
2019-03-06T01:20:17.583Z,2.40
2019-03-06T01:22:46.294Z,2.50
2019-03-06T01:25:19.769Z,2.40
2019-03-06T01:27:48.506Z,2.50
2019-03-06T01:30:24.465Z,2.40
2019-03-06T01:33:03.713Z,2.50
2019-03-06T01:35:39.670Z,2.40
2019-03-06T01:38:10.484Z,2.40
2019-03-06T01:40:49.514Z,2.30
2019-03-06T01:43:19.856Z,2.30
2019-03-06T01:45:48.495Z,2.30
2019-03-06T01:48:17.167Z,2.30
2019-03-06T01:50:45.862Z,2.30
2019-03-06T01:53:14.500Z,2.30
2019-03-06T01:55:43.140Z,2.20
2019-03-06T01:58:11.742Z,2.20
2019-03-06T02:00:41.055Z,2.20
2019-03-06T02:03:09.763Z,2.30
2019-03-06T02:05:38.347Z,2.20
2019-03-06T02:08:07.458Z,2.20
2019-03-06T02:10:36.173Z,2.20
2019-03-06T02:13:06.921Z,2.20
2019-03-06T02:15:35.562Z,2.10
2019-03-06T02:18:04.379Z,2.10
2019-03-06T02:20:33.134Z,2.00
2019-03-06T02:23:01.850Z,2.00
2019-03-06T02:25:30.527Z,1.80
2019-03-06T02:27:59.231Z,2.00
2019-03-06T02:30:28.075Z,1.90
2019-03-06T02:32:56.640Z,1.90
2019-03-06T02:35:25.251Z,1.90
2019-03-06T02:37:54.091Z,1.90
2019-03-06T02:40:22.663Z,1.90
2019-03-06T02:42:51.332Z,1.90
2019-03-06T02:45:20.846Z,1.80
2019-03-06T02:47:49.649Z,1.80
2019-03-06T02:50:19.269Z,1.80
2019-03-06T02:52:47.838Z,1.70
2019-03-06T02:55:17.969Z,1.70
2019-03-06T02:57:48.253Z,1.70
2019-03-06T03:00:27.890Z,1.70
2019-03-06T03:02:58.259Z,1.70
2019-03-06T03:05:31.385Z,1.60
2019-03-06T03:07:59.973Z,1.70
2019-03-06T03:10:28.653Z,1.60
2019-03-06T03:12:57.282Z,1.60
2019-03-06T03:15:25.924Z,1.60
2019-03-06T03:17:54.583Z,1.60
2019-03-06T03:20:23.231Z,1.60
2019-03-06T03:22:51.862Z,1.60
2019-03-06T03:25:20.545Z,1.60
2019-03-06T03:27:49.176Z,1.60
2019-03-06T03:30:17.897Z,1.60
2019-03-06T03:32:46.632Z,1.60
2019-03-06T03:35:15.280Z,1.60
2019-03-06T03:37:43.916Z,1.60
2019-03-06T03:40:14.733Z,1.60
2019-03-06T03:42:43.386Z,1.50
2019-03-06T03:45:16.599Z,1.50
2019-03-06T03:47:45.300Z,1.50
2019-03-06T03:50:15.428Z,1.50
2019-03-06T03:52:44.112Z,1.50
2019-03-06T03:55:17.564Z,1.60
2019-03-06T03:57:46.274Z,1.50
2019-03-06T04:00:17.348Z,1.40
2019-03-06T04:02:45.999Z,1.50
2019-03-06T04:05:14.714Z,1.50
2019-03-06T04:07:43.313Z,1.40
2019-03-06T04:10:13.722Z,1.40
2019-03-06T04:12:42.443Z,1.40
2019-03-06T04:15:13.240Z,1.40
2019-03-06T04:17:41.806Z,1.30
2019-03-06T04:20:15.416Z,1.40
2019-03-06T04:22:44.102Z,1.20
2019-03-06T04:25:12.911Z,1.20
2019-03-06T04:27:41.517Z,1.20
2019-03-06T04:30:15.769Z,1.20
2019-03-06T04:32:44.480Z,1.20
2019-03-06T04:35:13.390Z,1.20
2019-03-06T04:37:42.009Z,1.10
2019-03-06T04:40:12.893Z,1.10
2019-03-06T04:42:41.501Z,1.10
2019-03-06T04:45:17.960Z,1.10
2019-03-06T04:47:46.507Z,1.10
2019-03-06T04:50:15.505Z,1.00
2019-03-06T04:52:44.384Z,1.00
2019-03-06T04:55:14.960Z,1.00
2019-03-06T04:57:43.563Z,1.00
2019-03-06T05:00:14.545Z,1.00
2019-03-06T05:02:43.226Z,1.00
2019-03-06T05:05:11.906Z,0.90
2019-03-06T05:07:40.469Z,0.90
2019-03-06T05:10:13.717Z,0.90
2019-03-06T05:12:42.432Z,0.90
2019-03-06T05:15:16.217Z,0.90
2019-03-06T05:17:46.552Z,0.90
2019-03-06T05:20:15.229Z,0.80
2019-03-06T05:22:43.800Z,0.80
2019-03-06T05:25:12.481Z,0.70
2019-03-06T05:27:41.033Z,0.70
2019-03-06T05:30:13.804Z,0.70
2019-03-06T05:32:42.413Z,0.60
2019-03-06T05:35:14.364Z,0.60
2019-03-06T05:37:57.937Z,0.70
2019-03-06T05:40:26.665Z,0.60
2019-03-06T05:42:55.282Z,0.60
2019-03-06T05:45:23.821Z,0.70
2019-03-06T05:47:52.398Z,0.70
2019-03-06T05:50:21.009Z,0.70
2019-03-06T05:52:49.621Z,0.70
2019-03-06T05:55:18.277Z,0.70
2019-03-06T05:57:46.892Z,0.70
2019-03-06T06:00:22.977Z,0.70
2019-03-06T06:02:51.592Z,0.70
2019-03-06T06:05:20.177Z,0.80
2019-03-06T06:07:48.876Z,0.70
2019-03-06T06:10:17.558Z,0.80
2019-03-06T06:12:46.141Z,0.80
2019-03-06T06:15:15.553Z,0.80
2019-03-06T06:17:44.229Z,0.80
2019-03-06T06:20:14.354Z,0.90
2019-03-06T06:23:00.627Z,1.00
2019-03-06T06:25:30.905Z,1.00
2019-03-06T06:27:59.448Z,1.10
2019-03-06T06:30:28.225Z,1.20
2019-03-06T06:32:56.941Z,1.20
2019-03-06T06:35:26.502Z,1.30
2019-03-06T06:37:55.105Z,1.40
2019-03-06T06:40:23.904Z,1.40
2019-03-06T06:42:52.765Z,1.40
2019-03-06T06:45:21.381Z,1.50
2019-03-06T06:48:12.746Z,1.50
2019-03-06T06:50:47.350Z,1.60
2019-03-06T06:53:30.740Z,1.70
2019-03-06T06:56:18.788Z,1.80
2019-03-06T06:59:17.361Z,1.80
2019-03-06T07:02:09.381Z,1.90
2019-03-06T07:05:24.425Z,2.00
2019-03-06T07:08:03.488Z,2.00
2019-03-06T07:10:49.549Z,2.10
2019-03-06T07:13:19.797Z,2.30
2019-03-06T07:15:50.050Z,2.40
2019-03-06T07:18:20.413Z,2.50
2019-03-06T07:20:53.307Z,2.50
2019-03-06T07:23:32.281Z,2.60
2019-03-06T07:26:02.840Z,2.70
2019-03-06T07:28:35.506Z,2.80
2019-03-06T07:31:08.925Z,2.90
2019-03-06T07:33:45.034Z,3.00
2019-03-06T07:36:31.365Z,3.10
2019-03-06T07:39:00.845Z,3.20
2019-03-06T07:41:37.169Z,3.30
2019-03-06T07:44:16.673Z,3.40
2019-03-06T07:46:47.018Z,3.60
2019-03-06T07:49:23.330Z,3.60
2019-03-06T07:51:54.860Z,3.70
2019-03-06T07:54:30.981Z,3.80
2019-03-06T07:57:13.374Z,3.80
2019-03-06T07:59:42.117Z,3.90
2019-03-06T08:02:25.408Z,4.00
2019-03-06T08:04:54.791Z,4.10
2019-03-06T08:07:23.480Z,4.20
2019-03-06T08:09:52.393Z,4.30
2019-03-06T08:12:22.713Z,4.30
2019-03-06T08:14:55.895Z,4.40
2019-03-06T08:17:32.127Z,4.40
2019-03-06T08:20:02.377Z,4.50
2019-03-06T08:22:32.630Z,4.50
2019-03-06T08:25:05.415Z,4.50
2019-03-06T08:27:34.032Z,4.60
2019-03-06T08:30:03.082Z,4.60
2019-03-06T08:32:31.742Z,4.70
2019-03-06T08:35:00.370Z,4.80
2019-03-06T08:37:29.049Z,4.90
2019-03-06T08:39:57.701Z,5.00
2019-03-06T08:42:26.516Z,5.00
2019-03-06T08:44:55.123Z,5.10
2019-03-06T08:47:28.207Z,5.20
2019-03-06T08:50:01.377Z,5.30
2019-03-06T08:52:44.598Z,5.40
2019-03-06T08:55:14.918Z,5.60
2019-03-06T08:57:53.791Z,5.60
2019-03-06T09:00:30.626Z,5.70
2019-03-06T09:03:11.666Z,5.80
2019-03-06T09:05:42.195Z,5.90
2019-03-06T09:08:24.330Z,6.00
2019-03-06T09:11:03.392Z,6.00
2019-03-06T09:13:45.425Z,6.10
2019-03-06T09:16:31.828Z,6.20
2019-03-06T09:19:07.988Z,6.30
2019-03-06T09:21:38.253Z,6.40
2019-03-06T09:24:23.771Z,6.50
2019-03-06T09:26:54.017Z,6.70
2019-03-06T09:29:33.215Z,6.80
2019-03-06T09:32:06.032Z,6.80
2019-03-06T09:34:45.064Z,6.90
2019-03-06T09:37:15.318Z,7.00
2019-03-06T09:39:51.425Z,7.00
2019-03-06T09:42:37.834Z,7.10
2019-03-06T09:45:09.777Z,7.30
2019-03-06T09:47:42.933Z,7.40
2019-03-06T09:50:16.249Z,7.60
2019-03-06T09:52:55.257Z,7.60
2019-03-06T09:55:25.537Z,7.70
2019-03-06T09:58:04.776Z,7.80
2019-03-06T10:00:37.862Z,8.00
2019-03-06T10:03:14.024Z,8.20
2019-03-06T10:05:53.324Z,8.30
2019-03-06T10:08:35.237Z,8.40
2019-03-06T10:11:11.209Z,8.50
2019-03-06T10:13:44.390Z,8.70
2019-03-06T10:16:32.617Z,8.80
2019-03-06T10:19:04.596Z,8.90
2019-03-06T10:21:33.280Z,9.00
2019-03-06T10:24:01.925Z,9.10
2019-03-06T10:26:30.611Z,9.10
2019-03-06T10:28:59.275Z,9.20
2019-03-06T10:31:27.887Z,9.30
2019-03-06T10:33:56.498Z,9.40
2019-03-06T10:36:25.182Z,9.60
2019-03-06T10:38:53.760Z,9.60
2019-03-06T10:41:22.582Z,9.60
2019-03-06T10:43:51.118Z,9.60
2019-03-06T10:46:20.573Z,9.70
2019-03-06T10:48:49.193Z,9.80
2019-03-06T10:51:18.077Z,9.90
2019-03-06T10:53:46.654Z,9.90
2019-03-06T10:56:15.540Z,10.00
2019-03-06T10:58:44.157Z,10.10
2019-03-06T11:01:13.093Z,10.20
2019-03-06T11:03:43.414Z,10.20
2019-03-06T11:06:12.803Z,10.20
2019-03-06T11:08:41.422Z,10.30
2019-03-06T11:11:10.323Z,10.30
2019-03-06T11:13:39.055Z,10.30
2019-03-06T11:16:08.943Z,10.30
2019-03-06T11:18:37.567Z,10.30
2019-03-06T11:21:06.282Z,10.30
2019-03-06T11:23:34.978Z,10.30
2019-03-06T11:26:05.439Z,10.30
2019-03-06T11:28:34.194Z,10.40
2019-03-06T11:31:03.274Z,10.50
2019-03-06T11:33:31.955Z,10.60
2019-03-06T11:36:00.689Z,10.60
2019-03-06T11:38:29.474Z,10.60
2019-03-06T11:40:58.678Z,10.60
2019-03-06T11:43:27.431Z,10.80
2019-03-06T11:45:56.115Z,10.70
2019-03-06T11:48:30.267Z,10.60
2019-03-06T11:50:59.010Z,10.60
2019-03-06T11:53:27.814Z,10.70
2019-03-06T11:55:56.422Z,10.70
2019-03-06T11:58:25.162Z,10.70
2019-03-06T12:00:54.156Z,10.70
2019-03-06T12:03:24.359Z,10.70
2019-03-06T12:05:53.236Z,10.70
2019-03-06T12:08:22.023Z,10.70
2019-03-06T12:10:51.341Z,10.90
2019-03-06T12:13:20.129Z,10.90
2019-03-06T12:15:50.786Z,11.00
2019-03-06T12:18:22.197Z,10.90
2019-03-06T12:20:50.882Z,11.00
2019-03-06T12:23:19.572Z,11.00
2019-03-06T12:25:48.291Z,11.10
2019-03-06T12:28:17.378Z,11.20
2019-03-06T12:30:46.359Z,11.10
2019-03-06T12:33:20.452Z,11.00
2019-03-06T12:35:49.165Z,11.10
2019-03-06T12:38:18.026Z,11.20
2019-03-06T12:40:46.746Z,11.20
2019-03-06T12:43:15.362Z,11.20
2019-03-06T12:45:47.013Z,11.20
2019-03-06T12:48:17.301Z,11.20
2019-03-06T12:50:54.037Z,11.10
2019-03-06T12:53:16.241Z,11.20
2019-03-06T12:55:44.793Z,11.20
2019-03-06T12:58:13.338Z,11.20
2019-03-06T13:00:41.991Z,11.20
2019-03-06T13:03:10.677Z,11.30
2019-03-06T13:05:39.228Z,11.30
2019-03-06T13:08:07.889Z,11.40
2019-03-06T13:10:36.513Z,11.30
2019-03-06T13:13:05.135Z,11.30
2019-03-06T13:15:34.077Z,11.20
2019-03-06T13:18:02.693Z,11.20
2019-03-06T13:20:31.307Z,11.30
2019-03-06T13:23:00.016Z,11.30
2019-03-06T13:25:28.565Z,11.30
2019-03-06T13:27:57.137Z,11.30
2019-03-06T13:30:27.267Z,11.20
2019-03-06T13:33:03.416Z,11.20
2019-03-06T13:35:33.748Z,11.10
2019-03-06T13:38:02.473Z,11.10
2019-03-06T13:40:31.090Z,11.00
2019-03-06T13:42:59.909Z,11.10
2019-03-06T13:45:28.561Z,11.10
2019-03-06T13:47:57.189Z,11.20
2019-03-06T13:50:25.872Z,11.20
2019-03-06T13:52:54.609Z,11.20
2019-03-06T13:55:23.284Z,11.20
2019-03-06T13:57:51.837Z,11.10
2019-03-06T14:00:21.821Z,11.10
2019-03-06T14:02:52.654Z,11.10
2019-03-06T14:05:21.605Z,11.10
2019-03-06T14:07:56.441Z,11.10
2019-03-06T14:10:25.198Z,11.20
2019-03-06T14:12:54.175Z,11.20
2019-03-06T14:15:23.359Z,11.20
2019-03-06T14:17:52.049Z,11.20
2019-03-06T14:20:24.289Z,11.30
2019-03-06T14:22:53.181Z,11.40
2019-03-06T14:25:22.565Z,11.40
2019-03-06T14:27:51.353Z,11.60
2019-03-06T14:30:28.348Z,11.60
2019-03-06T14:32:57.037Z,11.70
2019-03-06T14:35:26.828Z,11.70
2019-03-06T14:37:55.616Z,11.70
2019-03-06T14:40:29.481Z,11.60
2019-03-06T14:42:58.763Z,11.50
2019-03-06T14:45:27.510Z,11.40
2019-03-06T14:47:56.266Z,11.30
2019-03-06T14:50:25.057Z,11.20
2019-03-06T14:52:53.673Z,11.20
2019-03-06T14:55:22.483Z,11.10
2019-03-06T14:57:51.082Z,11.00
2019-03-06T15:00:21.063Z,11.00
2019-03-06T15:02:49.716Z,10.80
2019-03-06T15:05:19.208Z,10.70
2019-03-06T15:07:48.073Z,10.60
2019-03-06T15:10:20.042Z,10.50
2019-03-06T15:12:48.763Z,10.50
2019-03-06T15:15:18.149Z,10.50
2019-03-06T15:17:47.275Z,10.50
2019-03-06T15:20:21.058Z,10.30
2019-03-06T15:22:51.043Z,10.40
2019-03-06T15:25:25.725Z,10.40
2019-03-06T15:27:56.560Z,10.40
2019-03-06T15:30:25.242Z,10.40
2019-03-06T15:32:53.964Z,10.40
2019-03-06T15:35:22.988Z,10.40
2019-03-06T15:37:51.574Z,10.30
2019-03-06T15:40:29.391Z,10.30
2019-03-06T15:42:58.077Z,10.20
2019-03-06T15:45:28.613Z,10.10
2019-03-06T15:47:59.389Z,10.00
2019-03-06T15:50:28.048Z,9.90
2019-03-06T15:52:56.765Z,9.80
2019-03-06T15:55:27.651Z,9.70
2019-03-06T15:57:56.433Z,9.60
2019-03-06T16:00:31.055Z,9.50
2019-03-06T16:02:59.852Z,9.50
2019-03-06T16:05:28.629Z,9.30
2019-03-06T16:07:58.352Z,9.30
2019-03-06T16:10:27.859Z,9.20
2019-03-06T16:12:56.538Z,9.20
2019-03-06T16:15:27.350Z,9.10
2019-03-06T16:17:57.430Z,9.00
2019-03-06T16:20:26.112Z,8.90
2019-03-06T16:22:54.837Z,8.80
2019-03-06T16:25:24.233Z,8.60
2019-03-06T16:27:53.115Z,8.50
2019-03-06T16:30:23.433Z,8.40
2019-03-06T16:32:52.239Z,8.40
2019-03-06T16:35:21.429Z,8.40
2019-03-06T16:37:50.133Z,8.30
2019-03-06T16:40:23.626Z,8.30
2019-03-06T16:42:52.382Z,8.20
2019-03-06T16:47:59.369Z,8.00
2019-03-06T16:50:28.248Z,8.10
2019-03-06T16:52:56.874Z,8.10
2019-03-06T16:55:26.367Z,8.00
2019-03-06T16:57:55.724Z,8.00
2019-03-06T17:00:27.115Z,8.00
2019-03-06T17:02:56.634Z,7.90
2019-03-06T17:05:25.679Z,7.80
2019-03-06T17:07:54.913Z,7.80
2019-03-06T17:10:25.823Z,7.70
2019-03-06T17:12:54.717Z,7.60
2019-03-06T17:15:24.273Z,7.50
2019-03-06T17:17:53.322Z,7.50
2019-03-06T17:20:26.341Z,7.40
2019-03-06T17:22:55.330Z,7.40
2019-03-06T17:25:27.395Z,7.30
2019-03-06T17:27:54.850Z,7.30
2019-03-06T17:30:28.450Z,7.30
2019-03-06T17:32:59.210Z,7.20
2019-03-06T17:35:28.897Z,7.20
2019-03-06T17:37:57.900Z,7.20
2019-03-06T17:40:27.293Z,7.10
2019-03-06T17:42:56.116Z,7.00
2019-03-06T17:45:25.073Z,7.00
2019-03-06T17:47:53.762Z,6.90
2019-03-06T17:50:22.586Z,6.90
2019-03-06T17:52:51.266Z,6.90
2019-03-06T17:55:20.057Z,6.90
2019-03-06T17:57:48.785Z,6.80
2019-03-06T18:00:29.742Z,6.80
2019-03-06T18:02:59.553Z,6.80
2019-03-06T18:05:28.355Z,6.80
2019-03-06T18:07:57.091Z,6.70
2019-03-06T18:10:25.799Z,6.80
2019-03-06T18:12:54.497Z,6.70
2019-03-06T18:15:23.110Z,6.70
2019-03-06T18:17:51.950Z,6.70
2019-03-06T18:20:20.626Z,6.70
2019-03-06T18:22:49.316Z,6.70
2019-03-06T18:25:19.332Z,6.70
2019-03-06T18:27:47.945Z,6.70
2019-03-06T18:30:20.018Z,6.60
2019-03-06T18:32:48.937Z,6.60
2019-03-06T18:35:18.545Z,6.50
2019-03-06T18:37:48.285Z,6.50
2019-03-06T18:40:21.530Z,6.50
2019-03-06T18:42:50.386Z,6.50
2019-03-06T18:45:20.371Z,6.50
2019-03-06T18:47:49.189Z,6.50
2019-03-06T18:50:19.833Z,6.50
2019-03-06T18:52:48.609Z,6.60
2019-03-06T18:55:18.013Z,6.50
2019-03-06T18:57:46.804Z,6.50
2019-03-06T19:00:21.045Z,6.50
2019-03-06T19:02:49.764Z,6.40
2019-03-06T19:05:19.764Z,6.30
2019-03-06T19:07:48.924Z,6.30
2019-03-06T19:10:20.567Z,6.30
2019-03-06T19:12:49.187Z,6.20
2019-03-06T19:15:19.464Z,6.30
2019-03-06T19:17:48.217Z,6.30
2019-03-06T19:20:19.664Z,6.30
2019-03-06T19:22:48.841Z,6.30
2019-03-06T19:25:19.320Z,6.30
2019-03-06T19:27:48.310Z,6.30
2019-03-06T19:30:22.884Z,6.30
2019-03-06T19:32:51.663Z,6.30
2019-03-06T19:35:21.647Z,6.20
2019-03-06T19:37:50.357Z,6.20
2019-03-06T19:40:19.645Z,6.20
2019-03-06T19:42:48.428Z,6.20
2019-03-06T19:45:23.523Z,6.20
2019-03-06T19:47:52.198Z,6.10
2019-03-06T19:50:22.189Z,6.10
2019-03-06T19:52:50.960Z,6.10
2019-03-06T19:55:20.038Z,6.10
2019-03-06T19:57:51.193Z,6.00
2019-03-06T20:00:21.027Z,6.00
2019-03-06T20:02:49.814Z,6.00
2019-03-06T20:05:18.797Z,6.00
2019-03-06T20:07:47.517Z,6.00
2019-03-06T20:10:16.797Z,5.90
2019-03-06T20:12:45.493Z,5.90
2019-03-06T20:15:16.611Z,5.90
2019-03-06T20:17:45.142Z,5.80
2019-03-06T20:20:17.028Z,5.80
2019-03-06T20:22:46.046Z,5.80
2019-03-06T20:25:15.633Z,5.70
2019-03-06T20:27:44.273Z,5.70
2019-03-06T20:30:18.048Z,5.70
2019-03-06T20:32:47.354Z,5.70
2019-03-06T20:35:21.856Z,5.60
2019-03-06T20:37:50.737Z,5.70
2019-03-06T20:40:19.427Z,5.60
2019-03-06T20:42:48.424Z,5.60
2019-03-06T20:45:18.306Z,5.70
2019-03-06T20:47:47.034Z,5.70
2019-03-06T20:50:19.892Z,5.70
2019-03-06T20:52:50.390Z,5.70
2019-03-06T20:55:19.016Z,5.70
2019-03-06T20:57:47.702Z,5.70
2019-03-06T21:00:18.958Z,5.70
2019-03-06T21:02:47.672Z,5.70
2019-03-06T21:05:16.359Z,5.60
2019-03-06T21:07:45.616Z,5.70
2019-03-06T21:10:16.533Z,5.70
2019-03-06T21:12:45.314Z,5.80
2019-03-06T21:15:21.169Z,5.80
2019-03-06T21:17:49.781Z,5.90
2019-03-06T21:20:20.537Z,5.90
2019-03-06T21:22:49.244Z,5.90
2019-03-06T21:25:18.928Z,5.90
2019-03-06T21:27:47.545Z,5.80
2019-03-06T21:30:19.821Z,5.80
2019-03-06T21:32:48.365Z,5.70
2019-03-06T21:35:17.085Z,5.70
2019-03-06T21:37:45.795Z,5.70
2019-03-06T21:40:14.575Z,5.60
2019-03-06T21:42:43.248Z,5.60
2019-03-06T21:45:13.161Z,5.60
2019-03-06T21:47:41.697Z,5.60
2019-03-06T21:50:15.394Z,5.60
2019-03-06T21:52:44.034Z,5.50
2019-03-06T21:55:16.065Z,5.50
2019-03-06T21:57:45.055Z,5.60
2019-03-06T22:00:24.593Z,5.50
2019-03-06T22:02:53.189Z,5.60
2019-03-06T22:05:21.930Z,5.70
2019-03-06T22:07:51.459Z,5.60
2019-03-06T22:10:20.286Z,5.70
2019-03-06T22:12:48.909Z,5.70
2019-03-06T22:15:21.620Z,5.70
2019-03-06T22:17:50.234Z,5.60
2019-03-06T22:20:18.916Z,5.60
2019-03-06T22:22:47.569Z,5.60
2019-03-06T22:25:17.064Z,5.60
2019-03-06T22:27:45.739Z,5.50
2019-03-06T22:30:22.450Z,5.60
2019-03-06T22:32:50.441Z,5.60
2019-03-06T22:35:19.123Z,5.60
2019-03-06T22:37:47.833Z,5.50
2019-03-06T22:40:20.177Z,5.50
2019-03-06T22:42:48.967Z,5.50
2019-03-06T22:45:18.669Z,5.50
2019-03-06T22:47:47.356Z,5.60
2019-03-06T22:50:16.945Z,5.60
2019-03-06T22:52:45.789Z,5.60
2019-03-06T22:55:16.461Z,5.60
2019-03-06T22:57:45.147Z,5.60
2019-03-06T23:00:19.871Z,5.60
2019-03-06T23:02:48.482Z,5.60
2019-03-06T23:05:17.097Z,5.50
2019-03-06T23:07:45.668Z,5.50
2019-03-06T23:10:14.521Z,5.50
2019-03-06T23:12:43.065Z,5.50
2019-03-06T23:15:11.768Z,5.40
2019-03-06T23:17:40.322Z,5.40
2019-03-06T23:20:09.398Z,5.40
2019-03-06T23:22:38.105Z,5.40
2019-03-06T23:25:07.094Z,5.40
2019-03-06T23:27:35.711Z,5.40
2019-03-06T23:30:07.332Z,5.30
2019-03-06T23:32:35.917Z,5.40
2019-03-06T23:35:05.707Z,5.40
2019-03-06T23:37:34.312Z,5.40
2019-03-06T23:40:02.951Z,5.40
2019-03-06T23:42:31.490Z,5.40
2019-03-06T23:45:00.029Z,5.40
2019-03-06T23:47:28.605Z,5.40
2019-03-06T23:49:57.323Z,5.40
2019-03-06T23:52:27.500Z,5.40
2019-03-06T23:54:56.321Z,5.30
2019-03-06T23:57:24.861Z,5.30
2019-03-06T23:59:53.401Z,5.40
